Time;durP1;ratioP1;P1;durP2;ratioP2;P2;SDS_P1;SDS_P2;PMS_P1;PMS_P2;Temp;Humidity;BMP_temperature;BMP_pressure;BME280_temperature;BME280_humidity;BME280_pressure;Samples;Min_cycle;Max_cycle;Signal;HPM_P1;HPM_P2
2022/03/11 00:01:07;;;;;;;25.35;10.98;;;6.70;91.80;;;;;;5074430;28;20623;-49
2022/03/11 00:03:33;;;;;;;19.60;8.93;;;6.80;91.60;;;;;;5074586;28;20176;-49
2022/03/11 00:05:58;;;;;;;26.23;9.95;;;6.80;90.80;;;;;;5073990;28;20245;-49
2022/03/11 00:08:24;;;;;;;19.33;7.05;;;6.80;91.10;;;;;;5073121;28;20535;-49
2022/03/11 00:10:50;;;;;;;11.85;6.60;;;6.70;90.80;;;;;;5074021;28;20182;-49
2022/03/11 00:13:15;;;;;;;11.18;6.93;;;6.70;91.30;;;;;;5073793;28;20719;-49
2022/03/11 00:15:42;;;;;;;9.82;6.32;;;6.70;91.00;;;;;;5074062;28;20682;-49
2022/03/11 00:18:08;;;;;;;10.95;7.18;;;6.70;91.30;;;;;;5074290;28;20166;-49
2022/03/11 00:20:34;;;;;;;11.95;7.10;;;6.70;91.70;;;;;;5056129;28;20177;-49
2022/03/11 00:23:00;;;;;;;13.63;8.00;;;6.70;91.90;;;;;;5073912;28;20168;-49
2022/03/11 00:25:26;;;;;;;15.10;8.90;;;6.70;91.90;;;;;;5073883;28;20180;-49
2022/03/11 00:27:51;;;;;;;10.88;7.13;;;6.60;92.10;;;;;;5073541;28;20647;-49
2022/03/11 00:30:17;;;;;;;11.27;6.82;;;6.60;92.50;;;;;;5073816;28;20169;-49
2022/03/11 00:32:43;;;;;;;12.25;7.47;;;6.60;92.40;;;;;;5073492;28;20632;-49
2022/03/11 00:35:11;;;;;;;13.13;8.07;;;6.60;92.40;;;;;;5073392;28;20670;-48
2022/03/11 00:37:37;;;;;;;12.23;7.25;;;6.50;92.30;;;;;;5073957;28;20589;-49
2022/03/11 00:40:04;;;;;;;10.98;7.10;;;6.50;93.40;;;;;;5073635;28;20178;-49
2022/03/11 00:42:29;;;;;;;10.55;7.05;;;6.40;93.70;;;;;;5073270;28;20685;-49
2022/03/11 00:44:55;;;;;;;13.57;6.75;;;6.40;95.40;;;;;;5073158;28;20174;-49
2022/03/11 00:47:20;;;;;;;10.10;6.88;;;6.40;96.00;;;;;;5073044;28;20222;-49
2022/03/11 00:49:46;;;;;;;13.15;7.68;;;6.40;94.90;;;;;;5073067;28;20201;-49
2022/03/11 00:52:11;;;;;;;16.13;7.43;;;6.40;95.60;;;;;;5073028;28;20181;-49
2022/03/11 00:54:37;;;;;;;9.95;6.18;;;6.40;96.70;;;;;;5073334;28;20210;-49
2022/03/11 00:57:03;;;;;;;8.48;6.60;;;6.30;97.80;;;;;;5072930;28;20177;-49
2022/03/11 00:59:28;;;;;;;11.38;6.57;;;6.30;99.40;;;;;;5072916;28;20174;-49
2022/03/11 01:01:54;;;;;;;12.55;6.93;;;6.30;99.90;;;;;;5072775;28;20174;-49
2022/03/11 01:04:19;;;;;;;11.23;6.43;;;6.20;99.70;;;;;;5072854;28;20660;-49
2022/03/11 01:06:45;;;;;;;12.10;7.13;;;6.20;99.90;;;;;;5054985;28;20231;-49
2022/03/11 01:09:11;;;;;;;11.95;6.95;;;6.20;99.90;;;;;;5072742;28;20239;-49
2022/03/11 01:11:37;;;;;;;13.63;6.80;;;6.20;99.90;;;;;;5073010;28;20678;-49
2022/03/11 01:14:03;;;;;;;10.65;6.28;;;6.20;99.90;;;;;;5072816;28;20202;-49
2022/03/11 01:16:29;;;;;;;9.93;6.90;;;6.20;99.90;;;;;;5072882;28;20174;-49
2022/03/11 01:18:55;;;;;;;8.88;5.82;;;6.10;99.90;;;;;;5072456;28;20196;-49
2022/03/11 01:21:21;;;;;;;11.10;6.10;;;6.10;99.90;;;;;;5072374;28;20170;-49
2022/03/11 01:23:46;;;;;;;9.32;6.18;;;6.10;99.90;;;;;;5072555;28;20162;-49
2022/03/11 01:26:12;;;;;;;8.52;6.15;;;6.10;99.90;;;;;;5072457;28;20247;-48
2022/03/11 01:28:42;;;;;;;12.38;6.35;;;6.10;99.90;;;;;;5072959;28;20168;-49
2022/03/11 01:31:09;;;;;;;9.48;6.45;;;6.00;99.90;;;;;;5072921;28;20266;-50
2022/03/11 01:33:34;;;;;;;13.18;5.82;;;6.00;99.90;;;;;;5072787;28;20216;-50
2022/03/11 01:36:00;;;;;;;8.38;5.55;;;6.00;99.90;;;;;;5072547;28;20166;-50
2022/03/11 01:38:25;;;;;;;9.20;5.85;;;6.00;99.90;;;;;;5072266;28;20198;-50
2022/03/11 01:40:51;;;;;;;10.32;6.50;;;6.00;99.90;;;;;;5072200;28;20185;-49
2022/03/11 01:43:17;;;;;;;10.23;6.70;;;6.00;99.90;;;;;;5072187;28;20574;-50
2022/03/11 01:45:44;;;;;;;10.48;6.18;;;6.00;99.90;;;;;;5072037;28;21010;-49
2022/03/11 01:48:11;;;;;;;8.65;5.63;;;5.90;99.90;;;;;;5072270;28;20546;-49
2022/03/11 01:50:41;;;;;;;11.02;5.78;;;5.90;99.90;;;;;;5072393;28;20659;-50
2022/03/11 01:53:10;;;;;;;9.50;6.15;;;5.80;99.90;;;;;;5072176;28;20732;-50
2022/03/11 01:55:37;;;;;;;11.88;5.75;;;5.90;99.90;;;;;;5054781;28;20182;-50
2022/03/11 01:58:04;;;;;;;8.90;5.35;;;5.90;99.90;;;;;;5072013;28;20631;-50
2022/03/11 02:00:30;;;;;;;9.98;5.75;;;5.90;99.90;;;;;;5072030;28;20209;-50
2022/03/11 02:02:56;;;;;;;10.35;6.20;;;5.90;99.90;;;;;;5071997;28;20192;-50
2022/03/11 02:05:22;;;;;;;9.65;5.55;;;5.90;99.90;;;;;;5072142;28;20181;-50
2022/03/11 02:07:49;;;;;;;8.30;5.63;;;5.90;99.90;;;;;;5071968;28;20554;-49
2022/03/11 02:10:15;;;;;;;8.38;5.45;;;5.90;99.90;;;;;;5072173;28;20181;-49
2022/03/11 02:12:41;;;;;;;13.25;5.30;;;5.90;99.90;;;;;;5071872;28;20170;-49
2022/03/11 02:15:08;;;;;;;9.02;5.30;;;5.80;99.90;;;;;;5072119;28;20544;-49
2022/03/11 02:17:34;;;;;;;8.85;5.97;;;5.70;99.90;;;;;;5072152;28;20257;-49
2022/03/11 02:20:00;;;;;;;9.80;5.32;;;5.80;99.90;;;;;;5071713;28;20204;-49
2022/03/11 02:22:26;;;;;;;10.98;5.93;;;5.80;99.90;;;;;;5072042;28;20197;-49
2022/03/11 02:24:53;;;;;;;9.57;5.90;;;5.80;99.90;;;;;;5071730;28;20169;-49
2022/03/11 02:27:19;;;;;;;11.25;6.22;;;5.80;99.90;;;;;;5071832;28;20537;-49
2022/03/11 02:29:45;;;;;;;9.40;5.82;;;5.80;99.90;;;;;;5071902;28;20170;-49
2022/03/11 02:32:10;;;;;;;9.30;5.43;;;5.80;99.90;;;;;;5072636;28;20177;-49
2022/03/11 02:34:40;;;;;;;8.75;5.50;;;5.80;99.90;;;;;;5076211;28;20674;-49
2022/03/11 02:37:06;;;;;;;8.30;5.65;;;5.80;99.90;;;;;;5058284;28;20162;-49
2022/03/11 02:39:32;;;;;;;9.95;6.10;;;5.80;99.90;;;;;;5076020;28;20506;-50
2022/03/11 02:41:58;;;;;;;10.00;6.10;;;5.80;99.90;;;;;;5075532;28;20277;-50
2022/03/11 02:44:24;;;;;;;9.32;5.93;;;5.80;99.90;;;;;;5075748;28;20170;-49
2022/03/11 02:46:50;;;;;;;9.32;5.55;;;5.80;99.90;;;;;;5075411;28;20275;-49
2022/03/11 02:49:16;;;;;;;10.23;5.70;;;5.80;99.90;;;;;;5075508;28;20612;-49
2022/03/11 02:51:42;;;;;;;11.18;6.60;;;5.70;99.90;;;;;;5075407;28;20161;-49
2022/03/11 02:54:07;;;;;;;9.23;5.10;;;5.70;99.90;;;;;;5075643;28;20297;-49
2022/03/11 02:56:33;;;;;;;10.13;6.00;;;7.10;99.90;;;;;;5075544;28;20162;-49
2022/03/11 02:58:58;;;;;;;9.88;5.82;;;5.70;99.90;;;;;;5075269;28;20169;-49
2022/03/11 03:01:24;;;;;;;9.43;5.93;;;5.70;99.90;;;;;;5075156;28;20170;-49
2022/03/11 03:03:49;;;;;;;10.02;5.85;;;5.60;99.90;;;;;;5075383;28;20177;-49
2022/03/11 03:06:15;;;;;;;14.73;5.82;;;5.60;99.90;;;;;;5075143;28;20174;-49
2022/03/11 03:08:41;;;;;;;13.00;6.25;;;5.70;99.90;;;;;;5075119;28;20170;-49
2022/03/11 03:11:06;;;;;;;9.60;6.10;;;5.60;99.90;;;;;;5075442;28;20170;-49
2022/03/11 03:13:32;;;;;;;8.40;6.50;;;5.70;99.90;;;;;;5074922;28;20205;-50
2022/03/11 03:15:57;;;;;;;13.07;6.20;;;5.60;99.90;;;;;;5075099;28;20621;-49
2022/03/11 03:18:23;;;;;;;9.27;5.88;;;5.70;99.90;;;;;;5074934;28;20174;-49
2022/03/11 03:20:49;;;;;;;11.93;6.53;;;5.60;99.90;;;;;;5075130;28;20166;-49
2022/03/11 03:23:14;;;;;;;9.93;5.97;;;5.60;99.90;;;;;;5075082;28;20627;-49
2022/03/11 03:25:41;;;;;;;10.95;6.22;;;5.60;99.90;;;;;;5074812;28;20174;-49
2022/03/11 03:28:07;;;;;;;9.57;6.10;;;5.60;99.90;;;;;;5075343;28;20592;-49
2022/03/11 03:30:34;;;;;;;10.65;6.13;;;5.60;99.90;;;;;;5057260;28;20166;-49
2022/03/11 03:32:59;;;;;;;9.38;6.38;;;5.70;99.90;;;;;;5074807;28;20224;-49
2022/03/11 03:35:25;;;;;;;10.63;6.40;;;5.60;99.90;;;;;;5074734;28;20646;-49
2022/03/11 03:37:50;;;;;;;11.63;6.15;;;5.60;99.90;;;;;;5074617;28;20169;-49
2022/03/11 03:40:16;;;;;;;10.23;6.18;;;5.60;99.90;;;;;;5074509;28;20166;-49
2022/03/11 03:42:45;;;;;;;9.68;6.10;;;5.50;99.90;;;;;;5074352;28;20212;-49
2022/03/11 03:45:11;;;;;;;10.57;6.13;;;5.50;99.90;;;;;;5074679;28;20265;-49
2022/03/11 03:47:36;;;;;;;11.27;7.22;;;5.50;99.90;;;;;;5074512;28;20282;-49
2022/03/11 03:50:02;;;;;;;9.55;6.25;;;5.50;99.90;;;;;;5074337;28;20695;-49
2022/03/11 03:52:29;;;;;;;10.52;6.60;;;5.40;99.90;;;;;;5074307;28;20174;-49
2022/03/11 03:54:54;;;;;;;12.73;7.28;;;5.40;99.90;;;;;;5074116;28;20254;-49
2022/03/11 03:57:21;;;;;;;13.68;7.07;;;5.50;99.90;;;;;;5074218;28;20248;-50
2022/03/11 03:59:46;;;;;;;12.35;6.03;;;5.40;99.90;;;;;;5074162;28;20162;-49
2022/03/11 04:02:12;;;;;;;9.27;6.35;;;5.40;99.90;;;;;;5074462;28;20174;-49
2022/03/11 04:04:37;;;;;;;10.02;6.10;;;5.40;99.90;;;;;;5074308;28;20162;-49
2022/03/11 04:07:03;;;;;;;13.43;6.85;;;5.50;99.90;;;;;;5074562;28;20223;-49
2022/03/11 04:09:29;;;;;;;14.88;8.95;;;5.40;99.90;;;;;;5073994;28;20643;-49
2022/03/11 04:11:54;;;;;;;11.02;6.90;;;5.40;99.90;;;;;;5073925;28;20593;-49
2022/03/11 04:14:20;;;;;;;10.68;6.57;;;5.40;99.90;;;;;;5073723;28;20213;-49
2022/03/11 04:16:45;;;;;;;11.05;6.53;;;5.40;99.90;;;;;;5073830;28;20529;-49
2022/03/11 04:19:11;;;;;;;13.07;7.10;;;5.40;99.90;;;;;;5073994;28;20201;-49
2022/03/11 04:21:36;;;;;;;10.68;6.82;;;5.40;99.90;;;;;;5073907;28;20172;-49
2022/03/11 04:24:03;;;;;;;11.95;7.35;;;5.40;99.90;;;;;;5073879;28;20161;-49
2022/03/11 04:26:29;;;;;;;10.15;6.32;;;5.40;99.90;;;;;;5073866;28;20181;-49
2022/03/11 04:28:54;;;;;;;13.07;7.45;;;5.30;99.90;;;;;;5073522;28;20223;-49
2022/03/11 04:31:20;;;;;;;14.02;7.07;;;5.30;99.90;;;;;;5073538;28;20170;-49
2022/03/11 04:33:45;;;;;;;14.88;7.20;;;5.30;99.90;;;;;;5073593;28;20202;-49
2022/03/11 04:36:11;;;;;;;12.80;6.75;;;5.30;99.90;;;;;;5073602;28;20170;-49
2022/03/11 04:38:37;;;;;;;11.52;6.65;;;5.30;99.90;;;;;;5073949;28;20166;-49
2022/03/11 04:41:03;;;;;;;12.07;7.25;;;5.20;99.90;;;;;;5073693;28;20639;-49
2022/03/11 04:43:28;;;;;;;11.00;7.05;;;5.20;99.90;;;;;;5073307;28;20174;-49
2022/03/11 04:45:54;;;;;;;12.32;7.40;;;5.20;99.90;;;;;;5073182;28;20679;-49
2022/03/11 04:48:19;;;;;;;12.50;7.13;;;5.20;99.90;;;;;;5073149;28;20652;-49
2022/03/11 04:50:45;;;;;;;10.73;6.50;;;5.10;99.90;;;;;;5073090;28;20162;-49
2022/03/11 04:53:11;;;;;;;13.27;7.93;;;5.20;99.90;;;;;;5073079;28;20634;-48
2022/03/11 04:55:37;;;;;;;12.00;7.30;;;5.10;99.90;;;;;;5072862;28;20257;-49
2022/03/11 04:58:02;;;;;;;12.25;7.80;;;5.10;99.90;;;;;;5072934;28;20201;-49
2022/03/11 05:00:28;;;;;;;14.68;7.53;;;5.20;99.90;;;;;;5072913;28;20635;-49
2022/03/11 05:02:54;;;;;;;13.73;7.20;;;5.20;99.90;;;;;;5073156;28;20170;-49
2022/03/11 05:05:21;;;;;;;24.65;10.20;;;5.10;99.90;;;;;;5073059;28;20170;-48
2022/03/11 05:07:47;;;;;;;13.25;7.75;;;5.10;99.90;;;;;;5072800;28;20512;-49
2022/03/11 05:10:16;;;;;;;11.63;7.25;;;5.10;99.90;;;;;;5072756;28;20315;-49
2022/03/11 05:12:41;;;;;;;11.30;7.07;;;5.10;99.90;;;;;;5072706;28;20710;-49
2022/03/11 05:15:09;;;;;;;22.23;10.85;;;5.10;99.90;;;;;;5072993;28;20320;-50
2022/03/11 05:17:35;;;;;;;13.23;7.45;;;5.10;99.90;;;;;;5073098;28;20204;-50
2022/03/11 05:20:02;;;;;;;14.02;7.75;;;5.10;99.90;;;;;;5072586;28;20616;-50
2022/03/11 05:22:27;;;;;;;14.57;7.93;;;5.10;99.90;;;;;;5072493;28;20166;-49
2022/03/11 05:24:53;;;;;;;13.70;8.18;;;5.10;99.90;;;;;;5072481;28;20162;-49
2022/03/11 05:27:18;;;;;;;30.15;15.95;;;5.10;99.90;;;;;;5072441;28;20525;-50
2022/03/11 05:29:44;;;;;;;15.68;9.93;;;5.00;99.90;;;;;;5072386;28;20166;-50
2022/03/11 05:32:10;;;;;;;16.45;9.00;;;5.10;99.90;;;;;;5072405;28;20205;-50
2022/03/11 05:34:40;;;;;;;36.70;18.67;;;5.10;99.90;;;;;;5072743;28;20212;-50
2022/03/11 05:37:06;;;;;;;17.25;9.70;;;5.00;99.90;;;;;;5072786;28;20170;-50
2022/03/11 05:39:32;;;;;;;16.63;9.40;;;5.10;99.90;;;;;;5072222;28;20173;-50
2022/03/11 05:41:58;;;;;;;17.08;9.60;;;5.00;99.90;;;;;;5072246;28;20205;-49
2022/03/11 05:44:24;;;;;;;27.90;13.70;;;5.00;99.90;;;;;;5072441;28;20170;-49
2022/03/11 05:46:49;;;;;;;19.50;10.07;;;5.00;99.90;;;;;;5071990;28;20255;-50
2022/03/11 05:49:15;;;;;;;21.83;10.77;;;5.00;99.90;;;;;;5072255;28;20711;-49
2022/03/11 05:51:41;;;;;;;22.17;12.15;;;5.00;99.90;;;;;;5072157;28;20196;-50
2022/03/11 05:54:06;;;;;;;32.47;16.63;;;5.00;99.90;;;;;;5072483;28;20567;-50
2022/03/11 05:56:32;;;;;;;15.05;9.25;;;5.00;99.90;;;;;;5071805;28;20638;-50
2022/03/11 05:58:58;;;;;;;36.85;18.60;;;5.00;99.90;;;;;;5072063;28;20181;-49
2022/03/11 06:01:23;;;;;;;23.92;12.68;;;5.00;99.90;;;;;;5071961;28;20166;-49
2022/03/11 06:03:49;;;;;;;17.30;10.77;;;5.00;99.90;;;;;;5071908;28;20653;-49
2022/03/11 06:06:15;;;;;;;17.45;9.50;;;5.00;99.90;;;;;;5071116;28;20193;-49
2022/03/11 06:08:41;;;;;;;15.63;9.07;;;5.00;99.90;;;;;;5071660;28;20174;-49
2022/03/11 06:11:08;;;;;;;30.58;16.42;;;5.00;99.90;;;;;;5072222;28;20224;-49
2022/03/11 06:13:34;;;;;;;27.17;10.60;;;5.00;99.90;;;;;;5072402;28;20206;-49
2022/03/11 06:15:59;;;;;;;18.40;10.32;;;5.00;99.90;;;;;;5072109;28;20192;-49
2022/03/11 06:18:25;;;;;;;26.83;15.27;;;5.00;99.90;;;;;;5071782;28;20173;-50
2022/03/11 06:20:51;;;;;;;20.95;12.73;;;5.10;99.90;;;;;;5071851;28;20178;-49
2022/03/11 06:23:16;;;;;;;17.20;10.43;;;5.10;99.90;;;;;;5071684;28;20170;-49
2022/03/11 06:25:42;;;;;;;18.63;11.43;;;5.10;99.90;;;;;;5071750;28;20179;-49
2022/03/11 06:28:08;;;;;;;21.85;12.20;;;5.10;99.90;;;;;;5072056;28;20213;-49
2022/03/11 06:30:34;;;;;;;42.90;20.90;;;5.10;99.90;;;;;;5072257;28;20253;-49
2022/03/11 06:33:00;;;;;;;19.00;10.80;;;5.10;99.90;;;;;;5071630;28;20604;-49
2022/03/11 06:35:26;;;;;;;17.92;9.57;;;5.10;99.90;;;;;;5071676;28;20249;-49
2022/03/11 06:37:51;;;;;;;17.65;11.00;;;5.10;99.90;;;;;;5071628;28;20538;-50
2022/03/11 06:40:18;;;;;;;17.30;11.05;;;5.20;99.90;;;;;;5071620;28;20175;-49
2022/03/11 06:42:45;;;;;;;19.45;9.95;;;5.20;99.90;;;;;;5071603;28;20166;-49
2022/03/11 06:45:13;;;;;;;19.80;11.20;;;5.20;99.90;;;;;;5071619;28;20174;-49
2022/03/11 06:47:39;;;;;;;20.90;10.98;;;5.20;99.90;;;;;;5071347;28;20221;-50
2022/03/11 06:50:06;;;;;;;15.35;9.68;;;5.30;99.90;;;;;;5071805;28;20166;-50
2022/03/11 06:52:32;;;;;;;16.73;10.68;;;5.30;99.90;;;;;;5071584;28;20173;-50
2022/03/11 06:54:58;;;;;;;23.70;11.57;;;5.30;99.90;;;;;;5071392;28;20308;-50
2022/03/11 06:57:23;;;;;;;19.73;11.20;;;5.40;99.90;;;;;;5053786;28;20196;-50
2022/03/11 06:59:49;;;;;;;18.00;10.77;;;5.40;99.90;;;;;;5071303;28;20635;-50
2022/03/11 07:02:16;;;;;;;15.32;10.40;;;5.40;99.90;;;;;;5071467;28;20582;-49
2022/03/11 07:04:41;;;;;;;20.98;10.80;;;5.40;99.90;;;;;;5053417;28;20551;-49
2022/03/11 07:07:07;;;;;;;17.25;10.48;;;5.50;99.90;;;;;;5071456;28;20162;-49
2022/03/11 07:09:33;;;;;;;18.00;11.38;;;3.50;99.90;;;;;;5071390;28;20231;-50
2022/03/11 07:12:01;;;;;;;19.52;11.40;;;5.50;99.90;;;;;;5071022;28;20162;-50
2022/03/11 07:14:36;;;;;;;18.70;10.68;;;5.60;99.90;;;;;;5071284;28;20613;-50
2022/03/11 07:17:06;;;;;;;18.73;12.05;;;5.70;99.90;;;;;;5071479;28;20170;-49
2022/03/11 07:19:32;;;;;;;26.95;11.10;;;5.70;99.90;;;;;;5071772;28;20182;-50
2022/03/11 07:22:01;;;;;;;18.38;11.50;;;5.80;99.90;;;;;;5073449;28;20193;-46
2022/03/11 07:24:27;;;;;;;20.25;12.90;;;5.80;99.90;;;;;;5073106;28;20678;-51
2022/03/11 07:26:53;;;;;;;21.70;12.43;;;5.80;99.90;;;;;;5073325;28;20166;-51
2022/03/11 07:29:18;;;;;;;18.40;11.63;;;6.00;99.90;;;;;;5073240;28;20178;-48
2022/03/11 07:31:45;;;;;;;20.55;13.18;;;6.00;99.90;;;;;;5073135;28;20162;-51
2022/03/11 07:34:11;;;;;;;21.35;11.68;;;6.10;99.90;;;;;;5074708;28;20249;-50
2022/03/11 07:36:36;;;;;;;22.45;12.60;;;6.10;99.90;;;;;;5074830;28;20243;-47
2022/03/11 07:39:03;;;;;;;17.35;11.50;;;6.20;99.90;;;;;;5073975;28;20181;-47
2022/03/11 07:41:29;;;;;;;18.63;11.80;;;6.10;99.90;;;;;;5074653;28;20527;-47
2022/03/11 07:43:56;;;;;;;23.67;11.48;;;6.20;99.90;;;;;;5074261;28;20181;-47
2022/03/11 07:46:23;;;;;;;17.77;12.43;;;6.10;99.90;;;;;;5074238;28;20224;-47
2022/03/11 07:48:49;;;;;;;17.20;11.68;;;6.30;99.90;;;;;;5056859;28;20213;-47
2022/03/11 07:51:15;;;;;;;19.98;12.25;;;6.30;99.90;;;;;;5074509;28;20227;-47
2022/03/11 07:53:40;;;;;;;23.38;12.48;;;6.40;99.90;;;;;;5074020;28;20197;-47
2022/03/11 07:56:07;;;;;;;25.55;12.73;;;6.40;99.90;;;;;;5074686;28;20182;-47
2022/03/11 07:58:33;;;;;;;20.67;12.43;;;6.50;99.90;;;;;;5074389;28;20253;-48
2022/03/11 08:00:58;;;;;;;26.10;13.00;;;6.60;99.90;;;;;;5074065;28;20170;-46
2022/03/11 08:03:24;;;;;;;20.88;12.20;;;6.60;99.90;;;;;;5074322;28;20219;-47
2022/03/11 08:05:49;;;;;;;25.13;11.77;;;6.60;99.90;;;;;;5073886;28;20667;-47
2022/03/11 08:08:15;;;;;;;22.40;11.85;;;6.60;99.90;;;;;;5074022;28;20244;-48
2022/03/11 08:10:41;;;;;;;19.92;12.05;;;6.70;99.90;;;;;;5074294;28;20581;-48
2022/03/11 08:13:07;;;;;;;21.27;11.82;;;6.70;99.90;;;;;;5074172;28;20181;-47
2022/03/11 08:15:34;;;;;;;22.45;13.13;;;4.30;99.90;;;;;;5074186;28;20170;-46
2022/03/11 08:18:00;;;;;;;20.65;12.05;;;6.80;99.90;;;;;;5055919;28;20209;-47
2022/03/11 08:20:26;;;;;;;20.65;11.48;;;6.90;99.90;;;;;;5074014;28;20217;-47
2022/03/11 08:22:51;;;;;;;21.60;12.77;;;7.00;99.90;;;;;;5073791;28;20631;-48
2022/03/11 08:25:18;;;;;;;23.30;12.55;;;7.10;99.90;;;;;;5073646;28;20187;-50
2022/03/11 08:27:44;;;;;;;24.83;11.95;;;7.10;99.90;;;;;;5073835;28;20216;-47
2022/03/11 08:30:11;;;;;;;19.38;11.52;;;7.20;99.90;;;;;;5072760;28;20159;-48
2022/03/11 08:32:38;;;;;;;18.80;12.38;;;7.20;99.90;;;;;;5074053;28;20181;-46
2022/03/11 08:35:06;;;;;;;18.23;11.93;;;7.20;99.90;;;;;;5073689;28;20201;-46
2022/03/11 08:37:32;;;;;;;20.92;11.88;;;7.50;99.90;;;;;;5073661;28;20255;-47
2022/03/11 08:39:58;;;;;;;23.67;12.88;;;7.50;99.90;;;;;;5073281;28;20522;-46
2022/03/11 08:42:23;;;;;;;17.67;12.88;;;7.50;99.90;;;;;;5073279;28;20177;-47
2022/03/11 08:44:49;;;;;;;21.30;12.52;;;7.70;99.90;;;;;;5073211;28;20180;-46
2022/03/11 08:47:15;;;;;;;21.13;12.93;;;7.70;99.90;;;;;;5073126;28;20222;-46
2022/03/11 08:49:40;;;;;;;18.63;13.00;;;7.60;99.90;;;;;;5073089;28;20256;-47
2022/03/11 08:52:06;;;;;;;19.98;12.77;;;7.60;99.90;;;;;;5073310;28;20180;-48
2022/03/11 08:54:32;;;;;;;22.48;12.55;;;7.80;99.90;;;;;;5073199;28;20209;-48
2022/03/11 08:56:59;;;;;;;18.30;12.07;;;7.90;99.90;;;;;;5072897;28;20595;-46
2022/03/11 08:59:25;;;;;;;21.58;12.90;;;7.90;99.90;;;;;;5072855;28;20174;-47
2022/03/11 09:01:51;;;;;;;20.73;11.90;;;8.10;99.90;;;;;;5073195;28;20643;-47
2022/03/11 09:04:16;;;;;;;19.20;12.10;;;8.20;99.90;;;;;;5072933;28;20174;-47
2022/03/11 09:06:42;;;;;;;19.75;13.25;;;8.30;99.90;;;;;;5072878;28;20169;-47
2022/03/11 09:09:08;;;;;;;20.67;12.50;;;8.40;99.90;;;;;;5072930;28;20223;-46
2022/03/11 09:11:34;;;;;;;20.58;13.73;;;8.50;99.90;;;;;;5055761;28;20530;-47
2022/03/11 09:13:59;;;;;;;17.52;12.68;;;8.60;99.90;;;;;;5072562;28;20201;-48
2022/03/11 09:16:25;;;;;;;22.23;12.88;;;8.40;99.90;;;;;;5072596;28;20705;-48
2022/03/11 09:18:51;;;;;;;19.27;10.98;;;8.40;99.90;;;;;;5072661;28;20193;-48
2022/03/11 09:21:16;;;;;;;18.08;11.80;;;8.50;99.90;;;;;;5072754;28;20211;-47
2022/03/11 09:23:43;;;;;;;17.80;11.70;;;8.60;99.90;;;;;;5072547;28;20635;-47
2022/03/11 09:26:08;;;;;;;21.45;12.65;;;8.90;99.90;;;;;;5072704;28;20583;-47
2022/03/11 09:28:34;;;;;;;16.90;11.38;;;8.80;99.90;;;;;;5072883;28;20253;-48
2022/03/11 09:31:01;;;;;;;24.77;12.15;;;8.90;99.90;;;;;;5072363;28;20553;-48
2022/03/11 09:33:27;;;;;;;20.52;11.90;;;8.90;99.40;;;;;;5072525;28;20277;-48
2022/03/11 09:35:52;;;;;;;19.33;12.65;;;9.00;99.70;;;;;;5072321;28;20174;-46
2022/03/11 09:38:18;;;;;;;21.42;12.52;;;9.00;99.10;;;;;;5072403;28;20173;-50
2022/03/11 09:40:45;;;;;;;21.45;12.85;;;9.00;98.20;;;;;;5072353;28;20174;-46
2022/03/11 09:43:15;;;;;;;30.20;14.55;;;9.00;97.90;;;;;;5072167;28;20166;-47
2022/03/11 09:45:41;;;;;;;19.52;12.45;;;9.20;98.30;;;;;;5072027;28;20174;-47
2022/03/11 09:48:07;;;;;;;15.82;11.55;;;9.30;97.10;;;;;;5072419;28;20177;-47
2022/03/11 09:50:33;;;;;;;21.90;13.60;;;9.20;96.90;;;;;;5072354;28;20178;-50
2022/03/11 09:53:00;;;;;;;25.25;12.45;;;9.40;97.70;;;;;;5072064;28;20630;-47
2022/03/11 09:55:25;;;;;;;23.10;13.98;;;9.30;96.30;;;;;;5072074;28;20617;-47
2022/03/11 09:57:51;;;;;;;16.50;12.10;;;9.50;96.40;;;;;;5071936;28;20170;-47
2022/03/11 10:00:17;;;;;;;28.27;16.42;;;9.60;96.40;;;;;;5071934;28;20158;-47
2022/03/11 10:02:44;;;;;;;20.33;12.35;;;9.60;95.90;;;;;;5071892;28;20166;-47
2022/03/11 10:05:10;;;;;;;19.35;12.38;;;9.90;96.30;;;;;;5071881;28;20215;-48
2022/03/11 10:07:36;;;;;;;34.83;23.35;;;10.00;95.30;;;;;;5072091;28;20209;-48
2022/03/11 10:10:15;;;;;;;27.55;15.85;;;10.20;95.60;;;;;;5071862;28;20170;-47
2022/03/11 10:12:43;;;;;;;21.45;13.35;;;10.20;94.00;;;;;;5072071;28;20173;-48
2022/03/11 10:15:11;;;;;;;23.90;14.75;;;10.10;93.90;;;;;;5071797;28;20722;-48
2022/03/11 10:17:39;;;;;;;23.35;14.35;;;10.20;94.20;;;;;;5072089;28;20166;-48
2022/03/11 10:20:08;;;;;;;25.50;16.05;;;10.30;93.70;;;;;;5072114;28;20260;-48
2022/03/11 10:22:34;;;;;;;27.25;17.33;;;10.50;93.70;;;;;;5072124;28;20158;-48
2022/03/11 10:25:09;;;;;;;20.95;16.15;;;10.60;92.90;;;;;;5071736;28;20643;-48
2022/03/11 10:27:57;;;;;;;25.02;13.25;;;10.70;92.60;;;;;;5054046;28;20694;-48
2022/03/11 10:30:23;;;;;;;23.70;12.65;;;10.70;92.00;;;;;;5071814;28;20165;-48
2022/03/11 10:32:56;;;;;;;23.65;14.93;;;10.60;92.20;;;;;;5071735;28;20166;-48
2022/03/11 10:35:33;;;;;;;22.88;15.07;;;10.80;91.50;;;;;;5071493;28;20213;-47
2022/03/11 10:38:00;;;;;;;24.45;13.23;;;10.90;91.20;;;;;;5071872;28;20162;-48
2022/03/11 10:40:28;;;;;;;21.23;12.98;;;11.10;90.90;;;;;;5071680;28;20158;-48
2022/03/11 10:43:17;;;;;;;20.00;13.52;;;11.10;90.30;;;;;;5053524;28;20176;-48
2022/03/11 10:45:48;;;;;;;20.13;15.23;;;11.20;90.80;;;;;;5071675;28;20258;-48
2022/03/11 10:48:15;;;;;;;26.55;18.77;;;11.20;89.80;;;;;;5071840;28;20178;-48
2022/03/11 10:50:41;;;;;;;22.17;15.20;;;11.40;90.30;;;;;;5071235;28;20496;-48
2022/03/11 10:53:11;;;;;;;25.77;17.92;;;11.30;89.30;;;;;;5072655;28;20173;-48
2022/03/11 10:55:39;;;;;;;21.63;15.82;;;11.30;89.20;;;;;;5075795;28;20184;-49
2022/03/11 10:58:07;;;;;;;24.98;17.17;;;11.40;88.70;;;;;;5075842;28;20281;-48
2022/03/11 11:00:40;;;;;;;28.17;18.25;;;11.50;87.60;;;;;;5075491;28;20173;-48
2022/03/11 11:03:08;;;;;;;25.50;14.93;;;11.60;87.60;;;;;;5075485;28;20162;-47
2022/03/11 11:05:35;;;;;;;35.70;27.73;;;11.60;86.00;;;;;;5075301;28;20219;-49
2022/03/11 11:08:04;;;;;;;21.27;14.00;;;11.70;87.60;;;;;;5074917;28;20695;-51
2022/03/11 11:10:33;;;;;;;25.38;15.70;;;11.60;85.30;;;;;;5075024;28;20581;-49
2022/03/11 11:12:59;;;;;;;28.75;16.58;;;11.80;86.10;;;;;;5075113;28;20208;-48
2022/03/11 11:15:25;;;;;;;23.75;15.00;;;11.80;86.20;;;;;;5074817;28;20220;-48
2022/03/11 11:17:51;;;;;;;18.13;12.07;;;11.90;86.90;;;;;;5074918;28;20162;-49
2022/03/11 11:20:38;;;;;;;20.35;12.68;;;11.90;86.90;;;;;;5075098;28;20252;-48
2022/03/11 11:23:07;;;;;;;30.10;14.93;;;11.80;85.50;;;;;;5075105;28;20166;-48
2022/03/11 11:25:34;;;;;;;21.35;12.35;;;11.90;84.60;;;;;;5075044;28;20170;-48
2022/03/11 11:28:05;;;;;;;20.10;14.18;;;12.10;85.30;;;;;;5074623;28;20479;-48
2022/03/11 11:30:31;;;;;;;18.67;13.18;;;12.00;84.60;;;;;;5074536;28;20162;-48
2022/03/11 11:32:59;;;;;;;26.92;15.70;;;12.00;84.00;;;;;;5074793;28;20861;-48
2022/03/11 11:35:34;;;;;;;23.52;12.70;;;12.00;84.60;;;;;;5074370;28;20212;-49
2022/03/11 11:38:04;;;;;;;16.25;12.13;;;11.90;84.00;;;;;;5074743;28;20193;-49
2022/03/11 11:40:32;;;;;;;19.10;14.32;;;11.80;84.60;;;;;;5074539;28;20690;-48
2022/03/11 11:43:45;;;;;;;32.58;18.77;;;12.10;84.70;;;;;;5074694;28;20174;-49
2022/03/11 11:46:09;;;;;;;27.80;16.38;;;12.20;84.50;;;;;;5070506;28;20572;-48
2022/03/11 11:48:41;;;;;;;26.90;15.32;;;12.30;83.40;;;;;;5074846;28;20208;-49
2022/03/11 11:51:09;;;;;;;18.17;12.38;;;12.40;83.00;;;;;;5056848;28;20174;-48
2022/03/11 11:53:42;;;;;;;28.30;17.17;;;12.40;84.60;;;;;;5056430;28;20201;-49
2022/03/11 11:56:26;;;;;;;17.80;13.40;;;12.60;84.60;;;;;;5074485;28;20209;-48
2022/03/11 11:58:52;;;;;;;20.23;12.50;;;12.50;84.00;;;;;;5074149;28;20647;-48
2022/03/11 12:01:39;;;;;;;19.77;14.45;;;12.40;84.10;;;;;;5074284;28;20193;-48
2022/03/11 12:04:24;;;;;;;21.52;13.00;;;12.50;82.90;;;;;;5073715;28;20174;-49
2022/03/11 12:06:56;;;;;;;24.42;13.18;;;12.70;83.30;;;;;;5073732;28;20166;-49
2022/03/11 12:09:57;;;;;;;19.02;12.85;;;12.80;82.10;;;;;;5074057;28;20194;-49
2022/03/11 12:12:30;;;;;;;23.27;14.40;;;12.70;82.20;;;;;;5034995;28;20169;-49
2022/03/11 12:17:38;;;;;;;22.60;14.82;;;12.70;82.50;;;;;;5073935;28;20644;-49
2022/03/11 12:20:26;;;;;;;20.00;12.80;;;13.00;81.60;;;;;;5074235;28;20204;-49
2022/03/11 12:23:16;;;;;;;20.80;13.05;;;13.10;81.70;;;;;;5062978;28;20297;-49
2022/03/11 12:25:48;;;;;;;24.70;15.38;;;13.30;82.10;;;;;;5059422;28;20174;-49
2022/03/11 12:28:35;;;;;;;20.02;15.95;;;13.30;80.10;;;;;;5073368;28;20677;-49
2022/03/11 12:31:09;;;;;;;20.92;13.80;;;13.20;79.30;;;;;;5057458;28;20193;-49
2022/03/11 12:33:45;;;;;;;21.02;14.45;;;13.40;80.30;;;;;;5070944;28;20533;-49
2022/03/11 12:36:16;;;;;;;17.23;12.82;;;13.30;78.90;;;;;;5073268;28;20208;-48
2022/03/11 12:38:43;;;;;;;18.52;12.68;;;13.30;79.60;;;;;;5056433;28;20169;-49
2022/03/11 12:41:14;;;;;;;21.70;12.32;;;13.20;80.40;;;;;;5073311;28;20177;-49
2022/03/11 12:43:42;;;;;;;19.95;14.27;;;13.30;79.60;;;;;;5073582;28;20170;-48